METAR stanice u blizini

 

LYBE - Beograd / Surčin, Srbija
Ažurirano: 17/07/2024 12:00
Vedro
Vedro
 Pravac vetra JZ
Vetar: JZ 13 km/h
Temperatura: 33°C
Heat Index: 37°C
Tačka rose: 22°C
Vlažnost: 52%
Pritisak: 1014 hPa
Pregled: Vedro
Vidljivost: greater than 10 km
2024/07/17 10:00 LYBE 171000Z 23007KT 160V260 CAVOK 33/22 Q1014 NOSIG
LYBT - Beograd / Batajnica, Srbija
Ažurirano: 17/07/2024 12:00
Vedro
Vedro
 Pravac vetra J
Vetar: J 9 km/h
Temperatura: 34°C
Heat Index: 39°C
Tačka rose: 23°C
Vlažnost: 53%
Pritisak: 1014 hPa
Pregled: Vedro
Vidljivost: greater than 10 km
2024/07/17 10:00 LYBT 171000Z 19005KT 140V260 CAVOK 34/23 Q1014 NOSIG
LYVR - Vršac, Srbija
Ažurirano: 17/07/2024 12:00
Vedro
Vedro
 Pravac vetra J
Vetar: J 24 km/h
Temperatura: 37°C
Tačka rose: 16°C
Vlažnost: 29%
Pritisak: 1013 hPa
Pregled: Vedro
Vidljivost: greater than 10 km
2024/07/17 10:00 LYVR 171000Z 17013KT 140V200 CAVOK 37/16 Q1013 NOSIG
 
LYKV - Lađevci, Srbija
Ažurirano: 17/07/2024 12:00
Few Clouds
Few Clouds
 Pravac vetra varies
Vetar: varies 2 km/h
Temperatura: 34°C
Tačka rose: 17°C
Vlažnost: 36%
Pritisak: 1014 hPa
Oblaci: Few Clouds
Vidljivost: 10 km
Cloud details: Few Clouds 1524 m
2024/07/17 10:00 LYKV 171000Z VRB01KT 9999 FEW050 34/17 Q1014 NOSIG
LYNI - Niš, Srbija
Ažurirano: 17/07/2024 12:00
Vedro
Vedro
 Pravac vetra varies
Vetar: varies 4 km/h
Temperatura: 37°C
Tačka rose: 17°C
Vlažnost: 31%
Pritisak: 1015 hPa
Pregled: Vedro
Vidljivost: greater than 10 km
2024/07/17 10:00 LYNI 171000Z VRB02KT CAVOK 37/17 Q1015 NOSIG
BKPR - Priština, Srbija
Ažurirano: 17/07/2024 12:00
Vedro
Vedro
 Pravac vetra JI
Vetar: JI 11 km/h
Temperatura: 33°C
Tačka rose: 15°C
Vlažnost: 34%
Pritisak: 1017 hPa
Pregled: Vedro
Vidljivost: greater than 10 km
2024/07/17 10:00 BKPR 171000Z 14006KT 090V170 CAVOK 33/15 Q1017 NOSIG
 
LHPP - Pecs / Pogany, Hungary
Ažurirano: 17/07/2024 11:45
Vedro
Vedro
 Pravac vetra SSI
Vetar: SSI 17 km/h
Temperatura: 32°C
Heat Index: 34°C
Tačka rose: 19°C
Vlažnost: 46%
Pritisak: 1016 hPa
Pregled: Vedro
Vidljivost: greater than 10 km
2024/07/17 09:45 LHPP 170945Z AUTO 02009KT 320V050 CAVOK 32/19 Q1016
LHUD - Szeged, Hungary
Ažurirano: 04/07/2019 01:45
NOT Current
Vedro
Vedro
 Pravac vetra S
Vetar: S 7 km/h
Temperatura: 18°C
Tačka rose: 13°C
Vlažnost: 73%
Pritisak: 1019 hPa
Pregled: Vedro
Vidljivost: greater than 10 km
2019/07/03 23:45 LHUD 032345Z 35004KT CAVOK 18/13 Q1019
LRTR - Timisoara, Romania
Ažurirano: 17/07/2024 12:00
Vedro
Vedro
 Pravac vetra JI
Vetar: JI 13 km/h
Temperatura: 37°C
Tačka rose: 14°C
Vlažnost: 25%
Pritisak: 1014 hPa
Pregled: Vedro
Vidljivost: greater than 10 km
2024/07/17 10:00 LRTR 171000Z 14007KT 100V170 CAVOK 37/14 Q1014
 
LRCV - Craiova, Romania
Ažurirano: 17/07/2024 12:00
Vedro
Vedro
 Pravac vetra IJI
Vetar: IJI 15 km/h
Temperatura: 37°C
Tačka rose: 16°C
Vlažnost: 29%
Pritisak: 1015 hPa
Pregled: Vedro
Vidljivost: greater than 10 km
2024/07/17 10:00 LRCV 171000Z 11008KT CAVOK 37/16 Q1015
LBSF - Sofia, Bulgaria
Ažurirano: 17/07/2024 12:00
Vedro
Vedro
 Pravac vetra IJI
Vetar: IJI 13 km/h
Temperatura: 35°C
Tačka rose: 12°C
Vlažnost: 25%
Pritisak: 1017 hPa
Pregled: Vedro
Vidljivost: greater than 10 km
2024/07/17 10:00 LBSF 171000Z 11007KT 060V170 CAVOK 35/12 Q1017 NOSIG
LWSK - Skoplje, Makedonija
Ažurirano: 17/07/2024 11:50
Vedro
Vedro
 Pravac vetra varies
Vetar: varies 6 km/h
Temperatura: 36°C
Tačka rose: 17°C
Vlažnost: 32%
Pritisak: 1014 hPa
Pregled: Vedro
Vidljivost: greater than 10 km
2024/07/17 09:50 LWSK 170950Z VRB03KT CAVOK 36/17 Q1014 NOSIG
 
LYPG - Podgorica, Crna Gora
Ažurirano: 17/07/2024 12:00
Vedro
Vedro
 Pravac vetra JJI
Vetar: JJI 9 km/h
Temperatura: 35°C
Heat Index: 38°C
Tačka rose: 21°C
Vlažnost: 44%
Pritisak: 1012 hPa
Pregled: Vedro
Vidljivost: greater than 10 km
2024/07/17 10:00 LYPG 171000Z 16005KT 110V270 CAVOK 35/21 Q1012 NOSIG
LQSA - Sarajevo, Bosna i Hercegovina
Ažurirano: 17/07/2024 12:00
Few Clouds
Few Clouds
 Pravac vetra varies
Vetar: varies 7 km/h
Temperatura: 31°C
Heat Index: 34°C
Tačka rose: 21°C
Vlažnost: 55%
Pritisak: 1016 hPa
Oblaci: Few Clouds
Vidljivost: 10 km
Cloud details: Few Clouds 1524 m
2024/07/17 10:00 LQSA 171000Z VRB04KT 9999 FEW050 31/21 Q1016 NOSIG
LDOS - Osijek, Hrvatksa
Ažurirano: 17/07/2024 12:00
Vedro
Vedro
 Pravac vetra SSZ
Vetar: SSZ 19 km/h
Temperatura: 32°C
Heat Index: 36°C
Tačka rose: 21°C
Vlažnost: 52%
Pritisak: 1014 hPa
Pregled: Vedro
Vidljivost: greater than 10 km
2024/07/17 10:00 LDOS 171000Z 34010KT CAVOK 32/21 Q1014